Time;durP1;ratioP1;P1;durP2;ratioP2;P2;SDS_P1;SDS_P2;PMS_P1;PMS_P2;Temp;Humidity;BMP_temperature;BMP_pressure;BME280_temperature;BME280_humidity;BME280_pressure;Samples;Min_cycle;Max_cycle;Signal;HPM_P1;HPM_P2
2022/09/07 00:02:50;;;;;;;19.20;7.30;;;;;;;17.46;80.05;100710.81;6049772;28;20037;-64
2022/09/07 00:05:47;;;;;;;10.93;7.83;;;;;;;17.55;79.95;100722.28;6049932;28;20412;-65
2022/09/07 00:08:43;;;;;;;12.25;7.95;;;;;;;17.49;80.26;100709.59;6046400;28;20069;-65
2022/09/07 00:11:38;;;;;;;12.80;7.87;;;;;;;17.48;80.20;100707.91;6048228;28;20068;-65
2022/09/07 00:14:33;;;;;;;11.70;7.83;;;;;;;17.38;80.54;100705.56;6050137;28;20308;-64
2022/09/07 00:17:29;;;;;;;13.27;7.93;;;;;;;17.36;80.98;100704.09;6050098;28;20041;-65
2022/09/07 00:20:24;;;;;;;12.83;7.80;;;;;;;17.32;81.11;100725.09;6048339;28;20429;-65
2022/09/07 00:23:19;;;;;;;14.20;7.18;;;;;;;17.17;81.05;100716.25;6049693;28;20088;-63
2022/09/07 00:26:17;;;;;;;14.37;7.40;;;;;;;17.09;81.93;100725.22;6047360;28;20404;-65
2022/09/07 00:29:12;;;;;;;12.02;7.72;;;;;;;17.02;82.13;100739.56;6046672;28;20026;-62
2022/09/07 00:32:08;;;;;;;11.97;7.60;;;;;;;16.95;81.59;100730.63;6049296;28;20044;-64
2022/09/07 00:35:03;;;;;;;12.20;7.83;;;;;;;16.89;82.59;100742.06;6049706;28;20038;-64
2022/09/07 00:37:59;;;;;;;14.73;7.72;;;;;;;16.83;82.54;100727.56;6047705;28;20116;-63
2022/09/07 00:40:55;;;;;;;14.50;7.82;;;;;;;16.91;82.90;100742.72;6041686;28;20034;-64
2022/09/07 00:43:56;;;;;;;10.40;7.80;;;;;;;16.89;82.44;100740.22;6049106;28;20485;-63
2022/09/07 00:46:51;;;;;;;13.75;7.93;;;;;;;16.83;82.79;100734.78;6047715;28;20065;-64
2022/09/07 00:49:50;;;;;;;20.53;8.80;;;;;;;16.84;83.21;100737.28;6046733;28;20044;-64
2022/09/07 00:52:48;;;;;;;12.82;8.23;;;;;;;16.78;83.11;100734.50;6048648;28;20056;-63
2022/09/07 00:55:46;;;;;;;12.55;8.55;;;;;;;16.62;83.83;100722.97;6048968;28;20531;-63
2022/09/07 00:58:42;;;;;;;13.25;8.80;;;;;;;16.68;84.36;100734.78;6044332;28;20033;-64
2022/09/07 01:01:38;;;;;;;14.05;8.55;;;;;;;16.67;84.36;100725.09;6047088;28;20477;-65
2022/09/07 01:04:34;;;;;;;12.40;8.77;;;;;;;16.76;84.63;100726.66;6048756;28;20075;-63
2022/09/07 01:07:29;;;;;;;13.93;9.18;;;;;;;16.71;84.67;100722.88;6047674;28;20477;-63
2022/09/07 01:10:26;;;;;;;13.25;9.20;;;;;;;16.79;84.69;100731.66;6047206;28;20034;-63
2022/09/07 01:13:22;;;;;;;13.88;8.50;;;;;;;16.80;85.06;100735.97;6039413;28;20030;-64
2022/09/07 01:16:30;;;;;;;15.48;8.30;;;;;;;16.77;85.08;100722.94;6048691;28;20503;-65
2022/09/07 01:19:26;;;;;;;12.50;8.75;;;;;;;16.76;85.34;100723.16;6049740;28;20141;-64
2022/09/07 01:22:39;;;;;;;12.73;8.30;;;;;;;16.81;85.02;100731.47;6048217;28;20040;-65
2022/09/07 01:25:44;;;;;;;12.18;8.40;;;;;;;16.81;84.87;100710.88;6043752;28;20120;-64
2022/09/07 01:28:41;;;;;;;12.73;8.30;;;;;;;16.81;84.62;100715.38;6042134;28;20123;-65
2022/09/07 01:31:42;;;;;;;13.95;8.00;;;;;;;16.56;84.49;100704.13;6041118;28;20038;-63
2022/09/07 01:34:38;;;;;;;13.10;8.63;;;;;;;16.52;85.23;100711.66;6059298;28;20033;-64
2022/09/07 01:37:41;;;;;;;16.50;9.98;;;;;;;16.50;85.53;100710.19;6047249;28;20382;-63
2022/09/07 01:40:36;;;;;;;14.57;9.23;;;;;;;16.52;85.59;100719.69;6045975;28;20038;-63
2022/09/07 01:43:39;;;;;;;14.35;9.07;;;;;;;16.50;86.25;100711.03;6036681;28;20378;-64
2022/09/07 01:46:42;;;;;;;17.77;10.15;;;;;;;16.38;86.18;100701.81;6049799;28;20061;-63
2022/09/07 01:49:54;;;;;;;13.98;9.32;;;;;;;16.43;86.39;100712.78;6046717;28;20034;-63
2022/09/07 01:52:52;;;;;;;15.50;9.23;;;;;;;16.37;86.30;100716.19;6045786;28;20481;-63
2022/09/07 01:55:57;;;;;;;15.15;8.98;;;;;;;16.27;86.83;100702.25;6046149;28;20428;-64
2022/09/07 01:59:22;;;;;;;14.38;9.30;;;;;;;16.31;87.05;100708.88;6046391;28;20030;-64
2022/09/07 02:02:20;;;;;;;14.98;8.70;;;;;;;16.22;87.63;100701.13;6044586;28;20045;-64
2022/09/07 02:05:30;;;;;;;13.88;9.77;;;;;;;16.21;87.82;100699.47;6045945;28;20040;-65
2022/09/07 02:08:40;;;;;;;14.95;9.48;;;;;;;16.17;87.75;100685.59;6046237;28;20105;-65
2022/09/07 02:11:38;;;;;;;12.38;8.25;;;;;;;16.09;87.87;100683.84;6040557;28;20049;-64
2022/09/07 02:14:36;;;;;;;16.42;9.80;;;;;;;16.07;88.49;100677.84;6040132;28;20027;-64
2022/09/07 02:17:42;;;;;;;14.13;9.52;;;;;;;16.02;88.45;100671.38;6034421;28;20105;-64
2022/09/07 02:20:39;;;;;;;16.52;9.73;;;;;;;16.00;88.71;100673.44;6045377;28;20060;-63
2022/09/07 02:23:40;;;;;;;18.20;9.65;;;;;;;16.02;88.58;100682.09;6045785;28;20357;-64
2022/09/07 02:26:38;;;;;;;15.98;8.95;;;;;;;15.94;89.01;100674.16;6045242;28;20125;-64
2022/09/07 02:29:34;;;;;;;13.27;9.00;;;;;;;15.89;89.41;100673.88;6045620;28;20069;-64
2022/09/07 02:32:29;;;;;;;15.65;9.48;;;;;;;15.85;89.61;100668.03;6044093;28;20034;-64
2022/09/07 02:35:24;;;;;;;13.43;8.60;;;;;;;15.84;89.55;100668.22;6045481;28;20049;-63
2022/09/07 02:38:20;;;;;;;16.67;9.03;;;;;;;15.75;89.64;100659.44;6045853;28;20034;-63
2022/09/07 02:41:30;;;;;;;14.40;8.88;;;;;;;15.76;90.42;100665.63;6042695;28;20304;-63
2022/09/07 02:44:28;;;;;;;16.05;9.18;;;;;;;15.70;89.80;100661.00;6027018;28;20034;-64
2022/09/07 02:47:32;;;;;;;14.10;8.93;;;;;;;15.73;90.17;100671.34;6045909;28;20065;-63
2022/09/07 02:50:52;;;;;;;21.63;10.25;;;;;;;15.70;90.22;100661.00;6044931;28;20429;-64
2022/09/07 02:54:16;;;;;;;17.38;9.57;;;;;;;15.67;90.53;100661.34;6045488;28;20036;-64
2022/09/07 02:57:30;;;;;;;15.82;9.13;;;;;;;15.74;90.36;100660.44;6039302;28;20461;-62
2022/09/07 03:00:30;;;;;;;13.23;9.23;;;;;;;15.62;90.33;100637.00;6043588;28;20044;-63
2022/09/07 03:03:52;;;;;;;12.32;8.88;;;;;;;15.71;90.38;100651.97;6044533;28;20465;-63
2022/09/07 03:06:51;;;;;;;16.52;9.88;;;;;;;15.65;90.65;100647.34;6037825;28;20042;-63
2022/09/07 03:09:49;;;;;;;13.95;8.57;;;;;;;15.63;90.36;100635.97;6060637;28;20037;-64
2022/09/07 03:12:46;;;;;;;13.43;8.45;;;;;;;15.65;90.67;100636.66;6043599;28;20041;-64
2022/09/07 03:15:42;;;;;;;14.25;8.93;;;;;;;15.56;90.93;100622.53;6039376;28;20031;-64
2022/09/07 03:18:37;;;;;;;15.73;9.63;;;;;;;15.52;91.24;100615.06;6045383;28;20033;-64
2022/09/07 03:21:32;;;;;;;16.40;9.20;;;;;;;15.59;91.46;100615.97;6039762;28;20056;-65
2022/09/07 03:24:28;;;;;;;15.23;8.98;;;;;;;15.65;90.94;100629.47;6038653;28;20026;-63
2022/09/07 03:27:23;;;;;;;14.32;9.35;;;;;;;15.61;90.77;100613.94;6040907;28;20034;-64
2022/09/07 03:30:19;;;;;;;15.23;8.57;;;;;;;15.67;91.34;100610.56;6039901;28;20103;-63
2022/09/07 03:33:15;;;;;;;16.55;9.93;;;;;;;15.71;91.54;100620.69;6011796;28;1241313;-66
2022/09/07 03:36:10;;;;;;;18.70;10.32;;;;;;;15.73;91.00;100608.00;6045493;28;20044;-64
2022/09/07 03:39:05;;;;;;;15.50;9.37;;;;;;;15.69;91.26;100600.50;6046158;28;20117;-63
2022/09/07 03:42:01;;;;;;;16.23;10.00;;;;;;;15.77;91.21;100611.13;6045376;28;20022;-63
2022/09/07 03:44:56;;;;;;;16.92;10.00;;;;;;;15.76;90.91;100604.13;6045720;28;20022;-65
2022/09/07 03:47:52;;;;;;;16.17;10.37;;;;;;;15.93;90.66;100627.84;6046200;28;20034;-64
2022/09/07 03:50:55;;;;;;;17.07;10.33;;;;;;;15.92;90.58;100662.81;6032223;28;20038;-63
2022/09/07 03:53:50;;;;;;;15.48;8.95;;;;;;;15.98;90.58;100751.16;6043384;28;20045;-63
2022/09/07 03:56:45;;;;;;;18.43;10.43;;;;;;;16.09;90.97;100739.19;6032557;28;20053;-63
2022/09/07 03:59:41;;;;;;;25.23;14.13;;;;;;;16.21;90.39;100644.09;6034668;28;20054;-65
2022/09/07 04:02:36;;;;;;;22.97;12.03;;;;;;;16.26;89.90;100708.59;6043003;28;20053;-64
2022/09/07 04:05:31;;;;;;;20.60;12.50;;;;;;;16.32;89.76;100748.03;6040704;28;20034;-64
2022/09/07 04:08:28;;;;;;;19.80;13.67;;;;;;;16.30;89.74;100691.19;6045831;28;20385;-64
2022/09/07 04:11:25;;;;;;;23.33;13.98;;;;;;;16.43;88.99;100685.19;6045076;28;20026;-65
2022/09/07 04:14:20;;;;;;;23.38;15.07;;;;;;;16.42;88.88;100660.25;6046140;28;20520;-65
2022/09/07 04:17:15;;;;;;;20.48;13.45;;;;;;;16.59;88.22;100680.50;6045677;28;20029;-65
2022/09/07 04:20:11;;;;;;;21.77;14.37;;;;;;;16.59;88.35;100693.88;6039871;28;20034;-63
2022/09/07 04:23:06;;;;;;;20.40;12.97;;;;;;;16.60;88.15;100698.22;6032896;28;20117;-64
2022/09/07 04:26:01;;;;;;;21.03;13.47;;;;;;;16.52;88.58;100695.59;6029688;28;20018;-63
2022/09/07 04:28:57;;;;;;;20.23;14.63;;;;;;;16.53;88.33;100707.16;6045774;28;20072;-64
2022/09/07 04:31:52;;;;;;;22.45;14.98;;;;;;;16.51;88.51;100731.44;6044918;28;20351;-64
2022/09/07 04:34:50;;;;;;;21.23;14.60;;;;;;;16.54;88.50;100719.56;6047977;28;20072;-64
2022/09/07 04:37:45;;;;;;;21.65;14.60;;;;;;;16.42;89.90;100705.75;6049132;28;20123;-65
2022/09/07 04:40:41;;;;;;;24.23;15.60;;;;;;;16.28;92.18;100698.53;6048704;28;20486;-65
2022/09/07 04:43:37;;;;;;;24.83;17.23;;;;;;;16.21;94.09;100696.78;6049664;28;20022;-62
2022/09/07 04:46:36;;;;;;;25.95;17.83;;;;;;;16.15;95.60;100703.69;6046099;28;20038;-64
2022/09/07 04:49:31;;;;;;;30.52;18.63;;;;;;;16.08;96.18;100692.06;6045152;28;20704;-63
2022/09/07 04:52:26;;;;;;;22.93;16.13;;;;;;;16.01;97.09;100688.44;6042475;28;20038;-64
2022/09/07 04:55:21;;;;;;;24.77;16.57;;;;;;;16.06;98.78;100689.56;6048074;28;20069;-64
2022/09/07 04:58:17;;;;;;;26.33;16.37;;;;;;;16.06;99.20;100705.63;6046779;28;20096;-64
2022/09/07 05:01:15;;;;;;;22.23;16.30;;;;;;;16.04;100.00;100722.88;6044322;28;20535;-63
2022/09/07 05:04:10;;;;;;;23.35;15.30;;;;;;;15.88;100.00;100701.59;6045249;28;20097;-63
2022/09/07 05:07:05;;;;;;;22.53;14.97;;;;;;;15.90;100.00;100697.75;6049107;28;20038;-63
2022/09/07 05:10:00;;;;;;;22.33;16.13;;;;;;;16.12;100.00;100706.72;6048095;28;20052;-63
2022/09/07 05:12:56;;;;;;;24.40;14.97;;;;;;;16.37;100.00;100699.28;6048505;28;20108;-64
2022/09/07 05:15:51;;;;;;;22.83;15.18;;;;;;;16.43;100.00;100696.72;6048515;28;20656;-63
2022/09/07 05:18:55;;;;;;;21.50;14.63;;;;;;;16.34;100.00;100707.69;6047801;28;20465;-63
2022/09/07 05:21:50;;;;;;;19.98;13.02;;;;;;;16.48;100.00;100699.66;6042989;28;20033;-63
2022/09/07 05:24:46;;;;;;;21.90;14.17;;;;;;;16.61;100.00;100689.16;6040174;28;20033;-63
2022/09/07 05:27:41;;;;;;;20.58;13.45;;;;;;;16.60;100.00;100689.38;6036995;28;20726;-64
2022/09/07 05:30:37;;;;;;;19.13;12.93;;;;;;;16.64;100.00;100688.81;6045106;28;20045;-63
2022/09/07 05:33:33;;;;;;;21.58;14.00;;;;;;;16.70;100.00;100697.94;6047981;28;20072;-64
2022/09/07 05:36:29;;;;;;;22.25;13.73;;;;;;;16.58;100.00;100707.44;6044829;28;20499;-64
2022/09/07 05:39:25;;;;;;;21.73;13.73;;;;;;;16.74;100.00;100682.34;6034738;28;20034;-64
2022/09/07 05:42:21;;;;;;;23.73;14.90;;;;;;;16.82;100.00;100696.47;6047577;28;20030;-64
2022/09/07 05:45:16;;;;;;;20.20;13.18;;;;;;;16.82;99.30;100701.00;6042890;28;20125;-64
2022/09/07 05:48:11;;;;;;;24.08;14.70;;;;;;;16.85;98.04;100720.19;6048262;28;20034;-65
2022/09/07 05:51:07;;;;;;;28.20;15.57;;;;;;;16.76;98.14;100724.00;6047610;28;20041;-64
2022/09/07 05:54:03;;;;;;;24.42;17.05;;;;;;;16.65;98.89;100711.06;6039409;28;20082;-63
2022/09/07 05:56:58;;;;;;;25.08;17.30;;;;;;;16.57;98.80;100712.00;6044483;28;20038;-64
2022/09/07 05:59:53;;;;;;;27.55;17.83;;;;;;;16.59;99.19;100711.78;6044201;28;20038;-63
2022/09/07 06:02:48;;;;;;;24.77;18.47;;;;;;;16.44;99.69;100702.91;6046844;28;20088;-63
2022/09/07 06:05:44;;;;;;;29.27;19.13;;;;;;;16.59;100.00;100696.56;6039785;28;20394;-63
2022/09/07 06:08:45;;;;;;;29.57;19.23;;;;;;;16.62;100.00;100690.84;6040604;28;20608;-63
2022/09/07 06:11:40;;;;;;;33.65;20.45;;;;;;;16.52;100.00;100684.06;6030826;28;20367;-63
2022/09/07 06:14:35;;;;;;;30.17;19.80;;;;;;;16.65;100.00;100679.75;6047251;28;20679;-63
2022/09/07 06:17:30;;;;;;;34.23;20.10;;;;;;;16.84;100.00;100673.00;6042178;28;20042;-63
2022/09/07 06:20:26;;;;;;;33.53;20.87;;;;;;;16.88;100.00;100662.72;6046727;28;20034;-64
2022/09/07 06:23:21;;;;;;;30.03;19.57;;;;;;;16.96;99.92;100670.66;6033461;28;20338;-63
2022/09/07 06:26:17;;;;;;;30.30;19.67;;;;;;;16.74;99.86;100656.38;6037677;28;20454;-64
2022/09/07 06:29:12;;;;;;;27.92;19.10;;;;;;;16.76;100.00;100648.16;6036148;28;20033;-64
2022/09/07 06:32:08;;;;;;;25.27;18.13;;;;;;;16.77;100.00;100628.41;6030413;28;20462;-64
2022/09/07 06:35:03;;;;;;;32.25;19.00;;;;;;;16.81;100.00;100640.38;6036789;28;20745;-64
2022/09/07 06:37:59;;;;;;;30.70;18.58;;;;;;;16.90;99.83;100639.28;6043176;28;20034;-63
2022/09/07 06:40:54;;;;;;;26.83;16.50;;;;;;;16.98;99.64;100626.59;6045794;28;20045;-65
2022/09/07 06:43:49;;;;;;;25.17;17.50;;;;;;;17.00;99.71;100624.53;6045419;28;20401;-63
2022/09/07 06:46:45;;;;;;;30.90;18.67;;;;;;;16.95;99.74;100618.09;6036713;28;20061;-64
2022/09/07 06:49:40;;;;;;;28.20;18.47;;;;;;;17.03;100.00;100613.47;6044213;28;20040;-64
2022/09/07 06:52:36;;;;;;;28.93;18.43;;;;;;;17.10;99.05;100605.47;6034399;28;20038;-63
2022/09/07 06:55:32;;;;;;;26.38;17.65;;;;;;;17.25;98.61;100627.69;6025300;28;20022;-65
2022/09/07 06:58:27;;;;;;;29.05;17.40;;;;;;;17.25;98.41;100617.81;6030647;28;20034;-65
2022/09/07 07:01:23;;;;;;;24.92;14.75;;;;;;;17.48;97.47;100625.63;6037042;28;20458;-64
2022/09/07 07:04:19;;;;;;;21.83;14.95;;;;;;;17.50;96.44;100615.53;6046282;28;20465;-64
2022/09/07 07:07:14;;;;;;;23.73;15.23;;;;;;;17.72;96.12;100617.19;6037391;28;20026;-64
2022/09/07 07:10:09;;;;;;;21.90;15.17;;;;;;;17.64;95.79;100617.34;6034869;28;20379;-65
2022/09/07 07:13:05;;;;;;;24.47;16.63;;;;;;;17.50;96.69;100638.88;6039349;28;20527;-63
2022/09/07 07:16:04;;;;;;;32.25;17.88;;;;;;;17.33;97.47;100650.84;6046370;28;20061;-63
2022/09/07 07:19:00;;;;;;;28.60;18.88;;;;;;;17.24;98.39;100669.75;6037557;28;20390;-64
2022/09/07 07:21:55;;;;;;;31.08;17.88;;;;;;;17.22;98.96;100660.22;6038599;28;20068;-65
2022/09/07 07:24:51;;;;;;;27.95;18.70;;;;;;;17.24;99.13;100647.47;6053114;28;20148;-64
2022/09/07 07:27:46;;;;;;;27.90;18.93;;;;;;;17.20;99.47;100651.56;6028615;28;20037;-65
2022/09/07 07:30:42;;;;;;;29.90;21.15;;;;;;;17.07;100.00;100635.31;6037070;28;20042;-64
2022/09/07 07:33:38;;;;;;;30.03;18.97;;;;;;;17.12;100.00;100635.59;6036091;28;20043;-65
2022/09/07 07:36:34;;;;;;;32.35;20.92;;;;;;;17.11;100.00;100631.25;6036575;28;20040;-64
2022/09/07 07:39:29;;;;;;;31.63;19.60;;;;;;;17.16;100.00;100644.91;6041288;28;20034;-64
2022/09/07 07:42:26;;;;;;;33.53;20.90;;;;;;;17.22;100.00;100654.88;6037404;28;20040;-64
2022/09/07 07:45:21;;;;;;;36.63;24.00;;;;;;;17.18;100.00;100642.84;6043925;28;20057;-64
2022/09/07 07:48:17;;;;;;;30.23;20.83;;;;;;;17.24;100.00;100628.69;6042418;28;20042;-64
2022/09/07 07:51:12;;;;;;;36.33;21.50;;;;;;;17.46;100.00;100662.53;6038018;28;20045;-63
2022/09/07 07:54:09;;;;;;;29.27;21.13;;;;;;;17.49;99.81;100653.28;6040402;28;20105;-65
2022/09/07 07:57:04;;;;;;;29.80;18.92;;;;;;;17.57;98.89;100675.47;6033405;28;20465;-64
2022/09/07 08:00:00;;;;;;;32.45;19.48;;;;;;;17.75;98.86;100689.25;6035740;28;20069;-64
2022/09/07 08:02:55;;;;;;;30.23;17.65;;;;;;;17.90;98.00;100673.06;6030510;28;20030;-65
2022/09/07 08:05:51;;;;;;;24.75;17.08;;;;;;;17.96;96.47;100676.84;6037036;28;20389;-65
2022/09/07 08:08:46;;;;;;;23.00;15.02;;;;;;;18.18;95.08;100673.06;6033645;28;20378;-65
2022/09/07 08:11:41;;;;;;;21.75;14.82;;;;;;;18.30;93.17;100666.94;6034328;28;20033;-65
2022/09/07 08:14:40;;;;;;;20.90;14.33;;;;;;;18.52;91.82;100658.84;6046696;28;20026;-63
2022/09/07 08:17:35;;;;;;;22.00;14.75;;;;;;;18.63;90.56;100659.09;6036589;28;20380;-65
2022/09/07 08:20:30;;;;;;;19.67;12.93;;;;;;;18.90;90.15;100668.94;6049575;28;20033;-64
2022/09/07 08:23:26;;;;;;;17.53;11.63;;;;;;;19.14;88.88;100666.72;6049701;28;20044;-63
2022/09/07 08:26:21;;;;;;;20.15;12.10;;;;;;;19.31;88.70;100671.53;6038653;28;20076;-63
2022/09/07 08:29:16;;;;;;;17.23;12.23;;;;;;;19.36;87.48;100670.94;6041824;28;20055;-64
2022/09/07 08:32:12;;;;;;;17.87;11.70;;;;;;;19.70;84.94;100665.44;6035598;28;20097;-63
2022/09/07 08:35:07;;;;;;;18.73;11.70;;;;;;;20.15;84.45;100677.19;6033622;28;20038;-64
2022/09/07 08:38:02;;;;;;;17.17;11.07;;;;;;;20.31;82.11;100673.25;6045566;28;20116;-64
2022/09/07 08:40:59;;;;;;;14.43;10.13;;;;;;;20.36;82.64;100684.22;6045362;28;20049;-64
2022/09/07 08:43:58;;;;;;;14.65;10.35;;;;;;;20.18;81.92;100685.69;6045358;28;20034;-65
2022/09/07 08:47:31;;;;;;;15.10;10.88;;;;;;;20.06;82.34;100697.28;6041788;28;20087;-64
2022/09/07 08:50:51;;;;;;;15.15;10.73;;;;;;;20.32;80.78;100696.47;6053846;28;20041;-64
2022/09/07 08:53:47;;;;;;;15.35;9.38;;;;;;;20.88;79.71;100683.25;6049339;28;20034;-63
2022/09/07 08:56:45;;;;;;;13.27;9.55;;;;;;;20.66;77.97;100688.94;6047249;28;20037;-64
2022/09/07 09:00:10;;;;;;;14.52;9.57;;;;;;;20.62;79.20;100682.31;6042454;28;20062;-64
2022/09/07 09:03:19;;;;;;;19.60;9.93;;;;;;;20.85;79.00;100679.13;6044110;28;20025;-63
2022/09/07 09:06:38;;;;;;;12.10;8.77;;;;;;;21.10;76.98;100685.47;6046040;28;20062;-64
2022/09/07 09:09:59;;;;;;;10.70;8.27;;;;;;;21.59;74.89;100682.06;6026943;28;20147;-63
2022/09/07 09:13:17;;;;;;;14.27;8.75;;;;;;;21.79;73.49;100679.22;6046084;28;20042;-63
2022/09/07 09:16:35;;;;;;;13.63;8.43;;;;;;;21.94;73.21;100663.53;6024995;28;20117;-63
2022/09/07 09:19:38;;;;;;;11.68;7.97;;;;;;;21.49;74.44;100670.09;6042514;28;20063;-63
2022/09/07 09:22:34;;;;;;;10.23;7.40;;;;;;;21.16;75.65;100657.63;6052449;28;20113;-63
2022/09/07 09:25:32;;;;;;;11.27;7.35;;;;;;;21.61;74.98;100668.31;6041634;28;20038;-65
2022/09/07 09:28:27;;;;;;;10.80;7.05;;;;;;;21.78;73.63;100666.75;6047048;28;20034;-64
2022/09/07 09:31:26;;;;;;;9.57;6.83;;;;;;;22.24;73.25;100661.78;6047275;28;20214;-64
2022/09/07 09:34:22;;;;;;;10.88;7.25;;;;;;;22.56;71.21;100661.69;6044750;28;20037;-63
2022/09/07 09:37:32;;;;;;;10.00;7.07;;;;;;;22.55;69.91;100668.97;6035885;28;20125;-64
2022/09/07 09:40:35;;;;;;;9.25;6.60;;;;;;;22.97;69.21;100669.91;6033417;28;20276;-64
2022/09/07 09:43:35;;;;;;;11.18;7.30;;;;;;;22.69;69.79;100675.06;6029839;28;20474;-64
2022/09/07 09:46:35;;;;;;;10.25;6.10;;;;;;;22.68;69.64;100658.00;6046425;28;20474;-64
2022/09/07 09:49:36;;;;;;;12.13;7.05;;;;;;;22.68;69.32;100673.41;6036425;28;20071;-63
2022/09/07 09:52:34;;;;;;;9.85;6.15;;;;;;;23.00;69.06;100664.88;6039522;28;20064;-63
2022/09/07 09:55:36;;;;;;;11.23;7.32;;;;;;;22.83;69.24;100666.56;6038664;28;20054;-63
2022/09/07 09:58:36;;;;;;;10.10;7.85;;;;;;;22.62;70.09;100674.28;6040329;28;20038;-64
2022/09/07 10:01:32;;;;;;;10.40;6.65;;;;;;;22.84;68.12;100668.22;6033722;28;20038;-64
2022/09/07 10:04:33;;;;;;;7.68;6.20;;;;;;;23.08;67.39;100669.97;6037724;28;20167;-63
2022/09/07 10:07:30;;;;;;;10.32;6.53;;;;;;;23.54;66.83;100658.50;6032591;28;20034;-65
2022/09/07 10:10:27;;;;;;;8.90;6.05;;;;;;;23.31;66.51;100658.44;6033145;28;20505;-64
2022/09/07 10:13:27;;;;;;;10.80;6.15;;;;;;;23.80;65.66;100640.19;6058507;28;20033;-64
2022/09/07 10:16:39;;;;;;;7.70;5.70;;;;;;;23.88;63.97;100650.69;6047366;28;20084;-64
2022/09/07 10:19:36;;;;;;;9.35;6.03;;;;;;;24.33;63.08;100650.94;6047464;28;20385;-64
2022/09/07 10:22:33;;;;;;;10.43;6.15;;;;;;;24.15;63.58;100654.59;6039676;28;20061;-64
2022/09/07 10:25:43;;;;;;;11.48;6.80;;;;;;;24.50;62.89;100655.41;6047133;28;20026;-64
2022/09/07 10:28:38;;;;;;;11.27;6.28;;;;;;;24.10;62.56;100651.78;6040414;28;20069;-64
2022/09/07 10:31:41;;;;;;;9.65;6.30;;;;;;;23.77;63.24;100655.03;6035639;28;20026;-64
2022/09/07 10:34:55;;;;;;;9.90;5.85;;;;;;;24.34;63.53;100653.41;6039304;28;20048;-65
2022/09/07 10:38:16;;;;;;;10.60;5.78;;;;;;;23.84;62.55;100653.03;6046027;28;20474;-64
2022/09/07 10:41:12;;;;;;;10.43;6.60;;;;;;;23.36;64.63;100649.59;6058870;28;20030;-64
2022/09/07 10:44:15;;;;;;;8.55;6.05;;;;;;;23.44;64.98;100657.44;6045666;28;20046;-64
2022/09/07 10:47:34;;;;;;;11.85;5.28;;;;;;;23.80;63.62;100651.84;6045313;28;20061;-64
2022/09/07 10:50:45;;;;;;;10.77;6.63;;;;;;;24.39;62.43;100653.53;6044964;28;20045;-64
2022/09/07 10:54:01;;;;;;;8.25;5.90;;;;;;;24.95;60.32;100646.59;6045513;28;20144;-64
2022/09/07 10:57:08;;;;;;;10.55;6.57;;;;;;;24.85;60.38;100634.47;6045455;28;20038;-65
2022/09/07 11:00:12;;;;;;;10.80;6.35;;;;;;;24.44;61.18;100639.25;6031702;28;20038;-65
2022/09/07 11:03:10;;;;;;;8.25;5.53;;;;;;;24.41;61.07;100659.53;6034773;28;20544;-64
2022/09/07 11:06:21;;;;;;;9.60;5.68;;;;;;;24.05;62.93;100654.34;6045427;28;20037;-64
2022/09/07 11:09:47;;;;;;;10.18;6.55;;;;;;;24.25;62.25;100652.13;6046189;28;20104;-63
2022/09/07 11:12:43;;;;;;;7.28;4.72;;;;;;;24.72;61.69;100645.56;6060962;28;20042;-64
2022/09/07 11:15:43;;;;;;;6.65;4.65;;;;;;;25.27;57.12;100636.88;6061617;28;20155;-64
2022/09/07 11:18:42;;;;;;;8.98;5.50;;;;;;;25.47;57.50;100633.72;6041646;28;20377;-65
2022/09/07 11:21:42;;;;;;;9.23;4.97;;;;;;;25.13;56.21;100635.53;6038105;28;20037;-64
2022/09/07 11:24:45;;;;;;;11.15;5.80;;;;;;;24.59;59.19;100643.13;6044997;28;20033;-63
2022/09/07 11:28:02;;;;;;;7.68;5.07;;;;;;;24.94;58.38;100634.06;6036638;28;20492;-64
2022/09/07 11:31:01;;;;;;;7.35;5.00;;;;;;;25.27;58.99;100640.44;6044097;28;20459;-65
2022/09/07 11:34:03;;;;;;;8.35;5.55;;;;;;;25.44;57.03;100624.13;6045489;28;20113;-64
2022/09/07 11:37:31;;;;;;;9.30;5.47;;;;;;;26.10;54.97;100630.66;6033441;28;20092;-64
2022/09/07 11:40:29;;;;;;;8.27;4.60;;;;;;;26.78;52.42;100619.38;6060877;28;20193;-64
2022/09/07 11:43:29;;;;;;;6.35;4.65;;;;;;;26.77;52.42;100618.50;6045682;28;20037;-64
2022/09/07 11:46:31;;;;;;;9.07;4.70;;;;;;;27.30;50.11;100619.66;6049825;28;20491;-64
2022/09/07 11:49:26;;;;;;;6.13;3.03;;;;;;;27.39;48.15;100613.50;6042868;28;20040;-64
2022/09/07 11:52:35;;;;;;;6.57;3.43;;;;;;;27.87;47.57;100603.53;6026206;28;20030;-65
2022/09/07 11:55:34;;;;;;;7.88;4.25;;;;;;;27.86;46.85;100610.88;6041940;28;20049;-65
2022/09/07 11:58:35;;;;;;;;;;;;;;;27.68;46.34;100605.84;6049377;28;20041;-65
2022/09/07 12:01:46;;;;;;;5.72;3.55;;;;;;;27.39;52.12;100604.50;6030107;28;20004;-65
2022/09/07 12:04:50;;;;;;;10.70;3.90;;;;;;;28.16;49.13;100597.47;6052638;28;20393;-64
2022/09/07 12:08:03;;;;;;;5.72;3.55;;;;;;;28.01;46.30;100605.53;6049498;28;20054;-64
2022/09/07 12:11:16;;;;;;;7.30;3.83;;;;;;;27.09;47.86;100603.13;6049045;28;20099;-64
2022/09/07 12:14:39;;;;;;;5.97;3.40;;;;;;;27.70;47.58;100592.78;6048917;28;20030;-65
2022/09/07 12:17:55;;;;;;;9.13;3.55;;;;;;;28.35;44.57;100585.03;6039035;28;20529;-65
2022/09/07 12:20:50;;;;;;;5.68;3.35;;;;;;;28.43;45.95;100578.22;6041183;28;20141;-64
2022/09/07 12:23:47;;;;;;;4.55;2.72;;;;;;;28.62;45.79;100576.69;6049212;28;20551;-65
2022/09/07 12:26:42;;;;;;;10.23;4.03;;;;;;;28.56;45.39;100566.00;6035531;28;20364;-64
2022/09/07 12:29:37;;;;;;;7.27;3.30;;;;;;;28.23;46.28;100569.97;6046341;28;20030;-65
2022/09/07 12:32:49;;;;;;;6.43;3.28;;;;;;;28.59;44.63;100568.22;6025720;28;20089;-65
2022/09/07 12:35:44;;;;;;;3.90;2.92;;;;;;;28.36;44.87;100558.56;6044408;28;20042;-64
2022/09/07 12:39:15;;;;;;;6.47;3.13;;;;;;;28.15;46.08;100568.56;6048064;28;20405;-65
2022/09/07 12:42:11;;;;;;;4.88;2.83;;;;;;;28.02;47.17;100557.28;6064119;28;20036;-65
2022/09/07 12:45:28;;;;;;;5.90;3.10;;;;;;;28.47;44.61;100553.97;6049674;28;20030;-64
2022/09/07 12:48:43;;;;;;;3.80;2.63;;;;;;;28.80;44.55;100556.28;6036884;28;20038;-65
2022/09/07 12:51:39;;;;;;;7.13;2.72;;;;;;;28.64;45.01;100549.13;6064244;28;20034;-65
2022/09/07 12:54:58;;;;;;;5.43;2.72;;;;;;;28.89;44.97;100546.47;6055456;28;20037;-65
2022/09/07 12:57:56;;;;;;;4.05;2.75;;;;;;;28.54;45.42;100554.50;6042338;28;20050;-65
2022/09/07 13:01:13;;;;;;;5.38;2.95;;;;;;;29.11;43.21;100551.69;6029204;28;20462;-65
2022/09/07 13:04:30;;;;;;;3.65;2.60;;;;;;;28.74;44.68;100538.25;6043496;28;20026;-64
2022/09/07 13:07:57;;;;;;;4.47;2.90;;;;;;;28.77;46.38;100543.16;6026843;28;20425;-65
2022/09/07 13:10:52;;;;;;;7.40;3.42;;;;;;;28.99;43.86;100538.28;6038580;28;20026;-64
2022/09/07 13:14:02;;;;;;;5.45;3.90;;;;;;;28.96;43.68;100525.16;6057200;28;20104;-65
2022/09/07 13:17:28;;;;;;;6.93;3.72;;;;;;;29.08;43.96;100530.38;6031952;28;20057;-65
2022/09/07 13:20:29;;;;;;;6.47;3.53;;;;;;;28.91;45.00;100516.97;6022227;28;20030;-65
2022/09/07 13:23:24;;;;;;;5.32;3.55;;;;;;;28.39;45.91;100524.47;6036791;28;20034;-65
2022/09/07 13:26:57;;;;;;;5.00;3.50;;;;;;;28.49;44.68;100527.22;6024219;28;20840;-65
2022/09/07 13:30:02;;;;;;;7.00;3.50;;;;;;;28.44;45.43;100525.28;6040317;28;20084;-64
2022/09/07 13:33:23;;;;;;;5.80;3.55;;;;;;;28.26;45.35;100536.69;6044198;28;20428;-64
2022/09/07 13:36:36;;;;;;;5.78;3.95;;;;;;;28.08;46.37;100524.34;6044516;28;20144;-64
2022/09/07 13:39:39;;;;;;;4.78;3.25;;;;;;;27.71;47.96;100515.38;6042269;28;20081;-65
2022/09/07 13:42:35;;;;;;;6.55;4.10;;;;;;;27.00;48.25;100528.44;6051424;28;20041;-65
2022/09/07 13:45:52;;;;;;;6.40;3.63;;;;;;;27.12;50.24;100520.91;6043079;28;20120;-64
2022/09/07 13:48:55;;;;;;;5.57;3.40;;;;;;;27.41;47.89;100517.91;6036161;28;20033;-65